JST600A YMAV-YMML
Flight info
| Callsign | JST600A |
|---|---|
| Flight time | 0h 11m |
| Altitude | 5000 |
| Route | AKDEL |
| Aircraft | A21N/M-SDE/LB1 |
Departure
| Time | 2026-04-19 22:58 |
|---|---|
| Airport | Melbourne Avalon International Airport (YMAV) |
Arrival
| Time | 2026-04-19 23:10 |
|---|---|
| Airport | Melbourne Airport (YMML) |
| Time | Latitude | Longitude | Altitude | Speed | Heading |
|---|---|---|---|---|---|
| 2026-04-19 22:44 | -38.02741 | 144.47372 | 44 ft | 0 kts | 6° |
| 2026-04-19 22:52 | -38.02754 | 144.47369 | 44 ft | 2 kts | 6° |
| 2026-04-19 22:52 | -38.02768 | 144.47368 | 44 ft | 0 kts | 6° |
| 2026-04-19 22:52 | -38.02779 | 144.47368 | 44 ft | 2 kts | 352° |
| 2026-04-19 22:52 | -38.02792 | 144.47374 | 44 ft | 2 kts | 326° |
| 2026-04-19 22:53 | -38.02803 | 144.47388 | 44 ft | 2 kts | 302° |
| 2026-04-19 22:53 | -38.02809 | 144.47403 | 44 ft | 0 kts | 280° |
| 2026-04-19 22:53 | -38.02810 | 144.47412 | 44 ft | 1 kts | 276° |
| 2026-04-19 22:53 | -38.02810 | 144.47414 | 44 ft | 0 kts | 276° |
| 2026-04-19 22:56 | -38.02809 | 144.47403 | 44 ft | 3 kts | 276° |
| 2026-04-19 22:56 | -38.02805 | 144.47350 | 44 ft | 9 kts | 276° |
| 2026-04-19 22:57 | -38.02797 | 144.47260 | 44 ft | 10 kts | 276° |
| 2026-04-19 22:57 | -38.02778 | 144.47165 | 44 ft | 11 kts | 307° |
| 2026-04-19 22:57 | -38.02743 | 144.47070 | 44 ft | 12 kts | 275° |
| 2026-04-19 22:57 | -38.02742 | 144.46964 | 44 ft | 10 kts | 234° |
| 2026-04-19 22:58 | -38.02836 | 144.46927 | 44 ft | 26 kts | 189° |
| 2026-04-19 22:58 | -38.03423 | 144.46825 | 47 ft | 142 kts | 188° |
| 2026-04-19 22:58 | -38.04537 | 144.46639 | 890 ft | 173 kts | 188° |
| 2026-04-19 22:58 | -38.05712 | 144.46587 | 2119 ft | 180 kts | 168° |
| 2026-04-19 22:59 | -38.06735 | 144.47484 | 3051 ft | 194 kts | 124° |
| 2026-04-19 22:59 | -38.07026 | 144.49159 | 3903 ft | 212 kts | 80° |
| 2026-04-19 22:59 | -38.06355 | 144.50937 | 4549 ft | 243 kts | 53° |
| 2026-04-19 22:59 | -38.05219 | 144.52725 | 4948 ft | 275 kts | 49° |
| 2026-04-19 23:00 | -38.04003 | 144.54515 | 5022 ft | 260 kts | 49° |
| 2026-04-19 23:00 | -38.02836 | 144.56259 | 5023 ft | 257 kts | 49° |
| 2026-04-19 23:00 | -38.01691 | 144.58008 | 5025 ft | 257 kts | 50° |
| 2026-04-19 23:00 | -38.00565 | 144.59757 | 5026 ft | 258 kts | 50° |
| 2026-04-19 23:01 | -37.99452 | 144.61505 | 4965 ft | 248 kts | 50° |
| 2026-04-19 23:01 | -37.98372 | 144.63213 | 4445 ft | 255 kts | 51° |
| 2026-04-19 23:01 | -37.97266 | 144.64964 | 4088 ft | 254 kts | 51° |
| 2026-04-19 23:01 | -37.96191 | 144.66670 | 4024 ft | 239 kts | 50° |
| 2026-04-19 23:02 | -37.95192 | 144.68259 | 4019 ft | 224 kts | 50° |
| 2026-04-19 23:02 | -37.94223 | 144.69798 | 4018 ft | 217 kts | 50° |
| 2026-04-19 23:02 | -37.93308 | 144.71262 | 3920 ft | 213 kts | 50° |
| 2026-04-19 23:02 | -37.92386 | 144.72733 | 3684 ft | 211 kts | 50° |
| 2026-04-19 23:03 | -37.91470 | 144.74191 | 3402 ft | 211 kts | 50° |
| 2026-04-19 23:03 | -37.90570 | 144.75617 | 3204 ft | 207 kts | 50° |
| 2026-04-19 23:03 | -37.89676 | 144.77031 | 3059 ft | 199 kts | 50° |
| 2026-04-19 23:03 | -37.88830 | 144.78372 | 2909 ft | 193 kts | 50° |
| 2026-04-19 23:04 | -37.87991 | 144.79700 | 2717 ft | 191 kts | 50° |
| 2026-04-19 23:04 | -37.87161 | 144.81012 | 2541 ft | 192 kts | 50° |
| 2026-04-19 23:04 | -37.86341 | 144.82307 | 2528 ft | 187 kts | 50° |
| 2026-04-19 23:04 | -37.85525 | 144.83594 | 2530 ft | 190 kts | 50° |
| 2026-04-19 23:05 | -37.84684 | 144.84921 | 2530 ft | 192 kts | 50° |
| 2026-04-19 23:05 | -37.83810 | 144.86171 | 2517 ft | 190 kts | 34° |
| 2026-04-19 23:05 | -37.82608 | 144.86688 | 2515 ft | 180 kts | 0° |
| 2026-04-19 23:05 | -37.81401 | 144.86583 | 2575 ft | 170 kts | 350° |
| 2026-04-19 23:06 | -37.80224 | 144.86322 | 2572 ft | 171 kts | 348° |
| 2026-04-19 23:06 | -37.79079 | 144.86064 | 2513 ft | 161 kts | 349° |
| 2026-04-19 23:06 | -37.78026 | 144.85854 | 2325 ft | 143 kts | 350° |
| 2026-04-19 23:06 | -37.77106 | 144.85683 | 2113 ft | 128 kts | 351° |
| 2026-04-19 23:07 | -37.76245 | 144.85527 | 1926 ft | 125 kts | 351° |
| 2026-04-19 23:07 | -37.75383 | 144.85368 | 1798 ft | 122 kts | 351° |
| 2026-04-19 23:07 | -37.74541 | 144.85213 | 1628 ft | 123 kts | 351° |
| 2026-04-19 23:07 | -37.73701 | 144.85057 | 1463 ft | 122 kts | 351° |
| 2026-04-19 23:08 | -37.72865 | 144.84900 | 1291 ft | 122 kts | 351° |
| 2026-04-19 23:08 | -37.72024 | 144.84746 | 1134 ft | 122 kts | 352° |
| 2026-04-19 23:08 | -37.71191 | 144.84596 | 969 ft | 121 kts | 351° |
| 2026-04-19 23:08 | -37.70352 | 144.84436 | 805 ft | 123 kts | 352° |
| 2026-04-19 23:09 | -37.69518 | 144.84285 | 652 ft | 121 kts | 351° |
| 2026-04-19 23:09 | -37.68677 | 144.84120 | 503 ft | 121 kts | 351° |
| 2026-04-19 23:09 | -37.67878 | 144.83972 | 442 ft | 103 kts | 350° |
| 2026-04-19 23:09 | -37.67284 | 144.83855 | 442 ft | 72 kts | 352° |
| 2026-04-19 23:10 | -37.66917 | 144.83794 | 442 ft | 29 kts | 351° |
| 2026-04-19 23:10 | -37.66757 | 144.83762 | 442 ft | 22 kts | 353° |
| 2026-04-19 23:10 | -37.66610 | 144.83737 | 442 ft | 17 kts | 352° |
| 2026-04-19 23:10 | -37.66519 | 144.83791 | 442 ft | 16 kts | 71° |
| 2026-04-19 23:11 | -37.66526 | 144.83925 | 442 ft | 12 kts | 131° |
| 2026-04-19 23:11 | -37.66615 | 144.83951 | 442 ft | 13 kts | 172° |
| 2026-04-19 23:11 | -37.66701 | 144.83971 | 442 ft | 5 kts | 160° |
| 2026-04-19 23:11 | -37.66736 | 144.84000 | 442 ft | 7 kts | 182° |
| 2026-04-19 23:12 | -37.66789 | 144.83986 | 442 ft | 8 kts | 190° |
| 2026-04-19 23:12 | -37.66853 | 144.83993 | 442 ft | 9 kts | 187° |
| 2026-04-19 23:12 | -37.66924 | 144.84004 | 442 ft | 10 kts | 171° |
| 2026-04-19 23:12 | -37.66997 | 144.84019 | 442 ft | 11 kts | 171° |
| 2026-04-19 23:13 | -37.67085 | 144.84038 | 442 ft | 14 kts | 171° |
| 2026-04-19 23:13 | -37.67189 | 144.84058 | 442 ft | 15 kts | 171° |
| 2026-04-19 23:13 | -37.67303 | 144.84079 | 442 ft | 16 kts | 171° |
| 2026-04-19 23:13 | -37.67413 | 144.84100 | 442 ft | 15 kts | 171° |
| 2026-04-19 23:14 | -37.67500 | 144.84154 | 442 ft | 13 kts | 110° |
| 2026-04-19 23:14 | -37.67491 | 144.84268 | 442 ft | 13 kts | 81° |
| 2026-04-19 23:14 | -37.67478 | 144.84380 | 442 ft | 12 kts | 82° |
| 2026-04-19 23:14 | -37.67467 | 144.84482 | 442 ft | 11 kts | 83° |
| 2026-04-19 23:15 | -37.67474 | 144.84580 | 442 ft | 10 kts | 83° |
| 2026-04-19 23:15 | -37.67467 | 144.84670 | 442 ft | 9 kts | 110° |
| 2026-04-19 23:15 | -37.67527 | 144.84694 | 442 ft | 6 kts | 172° |
| 2026-04-19 23:15 | -37.67531 | 144.84694 | 442 ft | 0 kts | 172° |
| 2026-04-19 23:16 | -37.67533 | 144.84694 | 442 ft | 0 kts | 172° |